Flight Track Log - Related Links

Times and Time Zones

All times are in EDT time to prevent confusion due to time zone crossing. See the XOJ772 flight status page for this flight to view local times or setup timezone preferences in your user account.


Time Position Orientation Groundspeed Altitude Reporting Facility
EDT Latitude Longitude Course Direction KTS MPH feet Rate Location/Type
Wed 03:46:38 PM 41.0500 -73.7000 217° Southwest 176 203 1,500  Level New York TRACON
Wed 03:47:38 PM 41.0167 -73.7333 217° Southwest 228 262 2,000 1,000 Climbing New York TRACON
Wed 03:48:38 PM 41.0667 -73.8000 315° West 244 281 3,500 1,750 Climbing New York TRACON
Wed 03:49:38 PM 41.1000 -73.8833 298° West 270 311 5,500 2,250 Climbing New York TRACON
Wed 03:50:38 PM 41.0500 -73.9333 217° Southwest 263 303 8,000 2,000 Climbing New York TRACON
Wed 03:51:38 PM 40.9833 -73.9667 201° Southwest 273 314 9,500 1,050 Climbing New York TRACON
Wed 03:52:38 PM 40.9167 -74.0167 210° Southwest 303 349 10,100 600 Climbing New York TRACON
Wed 03:53:38 PM 40.8167 -74.0667 201° Southwest 342 394 10,700 810 Climbing New York TRACON
Wed 03:54:44 PM 40.7500 -74.1167 210° Southwest 275 316 11,800 650 Climbing New York TRACON
Wed 03:55:38 PM 40.7000 -74.1833 225° Southwest 291 335 12,000 842 Climbing New York TRACON
Wed 03:56:38 PM 40.6333 -74.2500 217° Southwest 294 338 13,400 1,667 Climbing New York TRACON
Wed 03:57:44 PM 40.5500 -74.2000 155° Southeast 320 368 15,500 1,016 Climbing New York TRACON
Wed 03:59:00 PM 40.4058 -74.2735 201° Southwest  Level Estimated
Wed 04:00:52 PM 40.2819 -74.1586 206° Southwest 342 394 17,700  Level Washington Center
Wed 04:01:53 PM 40.1889 -74.2147 205° Southwest 361 415 19,400 1,664 Climbing Washington Center
Wed 04:02:51 PM 40.1086 -74.2978 218° Southwest 361 415 21,000 1,576 Climbing Washington Center
Wed 04:03:51 PM 40.0261 -74.3831 218° Southwest 381 438 22,500 1,388 Climbing Washington Center
Wed 04:04:52 PM 39.9417 -74.4683 218° Southwest 388 447 23,800 1,377 Climbing Washington Center
Wed 04:05:53 PM 39.8550 -74.5592 219° Southwest 393 452 25,300 1,438 Climbing Washington Center
Wed 04:06:00 PM 39.6078 -74.6739 206° Southwest  Level Estimated
Wed 04:06:53 PM 39.7661 -74.6467 217° Southwest 398 458 26,700  Level Washington Center
Wed 04:07:51 PM 39.6772 -74.7342 217° Southwest 404 465 28,100 1,441 Climbing Washington Center
Wed 04:09:00 PM 39.5637 -74.8448 217° Southwest  Level FlightAware Approximate
Wed 04:09:52 PM 39.4928 -74.9192 217° Southwest 417 480 31,000  Level Washington Center
Wed 04:10:52 PM 39.4017 -75.0114 218° Southwest 417 480 32,400 1,190 Climbing Washington Center
Wed 04:11:53 PM 39.3208 -75.0925 218° Southwest 417 480 33,400 1,261 Climbing Washington Center
Wed 04:12:51 PM 39.2106 -75.1550 204° Southwest 422 486 34,900 1,576 Climbing Washington Center
Wed 04:13:51 PM 39.0939 -75.2039 198° South 432 497 36,500 1,438 Climbing Washington Center
Wed 04:14:52 PM 38.9775 -75.2497 197° South 437 503 37,800 1,230 Climbing Washington Center
Wed 04:15:53 PM 38.8586 -75.3011 199° South 449 517 39,000 1,210 Climbing Washington Center
Wed 04:16:51 PM 38.7378 -75.3494 197° South 455 524 40,200 1,160 Climbing Washington Center
Wed 04:17:52 PM 38.6192 -75.4031 199° South 455 524 41,300 934 Climbing Washington Center
Wed 04:18:53 PM 38.5025 -75.4483 197° South 455 524 42,100 655 Climbing Washington Center
Wed 04:19:51 PM 38.3794 -75.4989 198° South 455 524 42,600 458 Climbing Washington Center
Wed 04:20:51 PM 38.2544 -75.5678 203° Southwest 460 529 43,000 198 Climbing Washington Center
Wed 04:21:52 PM 38.1378 -75.6367 205° Southwest 460 529 43,000  Level Washington Center
Wed 04:22:53 PM 38.0272 -75.7131 209° Southwest 460 529 43,000  Level Washington Center
Wed 04:23:51 PM 37.9122 -75.7892 208° Southwest 465 535 43,000  Level Washington Center
Wed 04:24:52 PM 37.7911 -75.8544 203° Southwest 465 535 43,000  Level Washington Center
Wed 04:25:53 PM 37.6783 -75.9303 208° Southwest 470 541 43,000  Level Washington Center
Wed 04:26:53 PM 37.5633 -76.0031 207° Southwest 470 541 43,000 100 Level Washington Center
Wed 04:27:53 PM 37.4486 -76.0731 206° Southwest 470 541 43,200 356 Climbing Washington Center
Wed 04:28:51 PM 37.3356 -76.1431 206° Southwest 470 541 43,700 504 Climbing Washington Center
Wed 04:29:52 PM 37.2164 -76.2047 202° Southwest 470 541 44,200 496 Climbing Washington Center
Wed 04:30:52 PM 37.1033 -76.2742 206° Southwest 460 529 44,700 397 Climbing Washington Center
Wed 04:31:53 PM 36.9903 -76.3408 205° Southwest 455 524 45,000 151 Climbing Washington Center
Wed 04:32:51 PM 36.8772 -76.4097 206° Southwest 455 524 45,000  Level Washington Center
Wed 04:33:52 PM 36.7619 -76.4786 206° Southwest 450 518 45,000  Level Washington Center
Wed 04:34:53 PM 36.6447 -76.5419 203° Southwest 450 518 45,000  Level Washington Center
Wed 04:35:53 PM 36.5253 -76.5947 200° South 455 524 45,000  Level Washington Center
Wed 04:36:53 PM 36.4081 -76.6500 201° Southwest 455 524 45,000  Level Washington Center
Wed 04:37:51 PM 36.2969 -76.6950 198° South 460 529 45,000  Level Washington Center
Wed 04:38:52 PM 36.1756 -76.7500 200° South 465 535 45,000 -49 Level Washington Center
Wed 04:39:53 PM 36.0561 -76.8022 199° South 465 535 44,900  Descending Washington Center
Wed 04:40:51 PM 35.9344 -76.8542 199° South 465 535 45,000 50 Climbing Washington Center
Wed 04:41:52 PM 35.8150 -76.9061 199° South 465 535 45,000  Level Washington Center
Wed 04:42:53 PM 35.6914 -76.9603 200° South 465 535 45,000  Level Washington Center
Wed 04:43:51 PM 35.5758 -77.0144 201° Southwest 459 528 45,000  Level Washington Center
Wed 04:44:51 PM 35.4542 -77.0658 199° South 459 528 45,000  Level Washington Center
Wed 04:45:52 PM 35.3347 -77.1197 200° South 459 528 45,000  Level Washington Center
Wed 04:46:51 PM 35.2108 -77.1733 199° South 465 535 45,000  Level Washington Center
Wed 04:47:51 PM 35.0911 -77.2267 200° South 465 535 45,000  Level Washington Center
Wed 04:48:52 PM 34.9694 -77.2775 199° South 465 535 45,000  Level Washington Center
Wed 04:49:52 PM 34.8436 -77.3331 200° South 471 542 45,000  Level Washington Center
Wed 04:50:52 PM 34.7111 -77.3936 201° Southwest 471 542 45,000  Level Washington Center
Wed 04:51:53 PM 34.5872 -77.4464 199° South 471 542 45,000  Level Washington Center
Wed 04:52:51 PM 34.4592 -77.4911 196° South 471 542 45,000  Level Washington Center
Wed 04:53:52 PM 34.3356 -77.5286 194° South 465 535 45,000  Level Washington Center
Wed 04:54:53 PM 34.2097 -77.5683 195° South 460 529 45,000  Level Washington Center
Wed 04:55:51 PM 34.0819 -77.6078 194° South 460 529 45,000  Level Washington Center
Wed 04:56:28 PM 34.0000 -77.6325 194° South 463 533 45,000  Level Jacksonville Center
Wed 04:57:28 PM 33.8869 -77.6694 195° South 474 545 45,000  Level Jacksonville Center
Wed 04:58:28 PM 33.7592 -77.7094 195° South 481 554 45,000  Level Jacksonville Center
Wed 04:59:28 PM 33.6150 -77.7578 196° South 481 554 45,000  Level Jacksonville Center
Wed 05:00:28 PM 33.5122 -77.7911 195° South 481 554 45,000  Level Jacksonville Center
Wed 05:01:28 PM 33.3742 -77.8364 195° South 481 554 45,000  Level Jacksonville Center
Wed 05:02:28 PM 33.2422 -77.8761 194° South 481 554 45,000  Level Jacksonville Center
Wed 05:03:28 PM 33.1144 -77.9181 195° South 481 554 45,000  Level Jacksonville Center
Wed 05:04:28 PM 32.9825 -77.9575 194° South 486 559 45,000  Level Jacksonville Center
Wed 05:05:28 PM 32.8483 -77.9994 195° South 486 559 45,000  Level Jacksonville Center
Wed 05:06:28 PM 32.7183 -78.0386 194° South 486 559 45,000  Level Jacksonville Center
Wed 05:07:28 PM 32.5844 -78.0803 195° South 491 565 45,000  Level Jacksonville Center
Wed 05:08:28 PM 32.4483 -78.1219 194° South 491 565 45,000  Level Jacksonville Center
Wed 05:09:28 PM 32.3119 -78.1636 194° South 497 572 45,000  Level Jacksonville Center
Wed 05:10:28 PM 32.1758 -78.2072 195° South 502 578 45,000  Level Jacksonville Center
Wed 05:11:28 PM 32.0394 -78.2461 194° South 509 586 45,000  Level Jacksonville Center
Wed 05:12:28 PM 31.9036 -78.2944 197° South 509 586 45,000  Level Jacksonville Center
Wed 05:13:28 PM 31.7653 -78.3406 196° South 509 586 45,000  Level Jacksonville Center
Wed 05:14:28 PM 31.6311 -78.3836 195° South 509 586 45,000  Level Jacksonville Center
Wed 05:15:28 PM 31.4931 -78.4294 196° South 509 586 45,000  Level Jacksonville Center
Wed 05:16:28 PM 31.3547 -78.4725 195° South 509 586 45,000  Level Jacksonville Center
Wed 05:17:28 PM 31.2206 -78.5153 195° South 509 586 45,000  Level Jacksonville Center
Wed 05:18:28 PM 31.0822 -78.5606 196° South 514 592 45,000  Level Jacksonville Center
Wed 05:19:28 PM 30.9456 -78.5983 193° South 514 592 45,000  Level Jacksonville Center
Wed 05:20:28 PM 30.8053 -78.6433 195° South 514 592 45,000  Level Jacksonville Center
Wed 05:21:28 PM 30.6647 -78.6858 195° South 521 600 45,000  Level Jacksonville Center
Wed 05:22:28 PM 30.5264 -78.7328 196° South 521 600 45,000  Level Jacksonville Center
Wed 05:23:16 PM 30.4197 -78.7725 198° South 512 589 45,000  Level Miami Center
Wed 05:24:16 PM 30.2836 -78.8181 196° South 512 589 45,000  Level Miami Center
Wed 05:25:16 PM 30.1453 -78.8708 198° South 518 596 45,000  Level Miami Center
Wed 05:26:16 PM 30.0131 -78.9306 201° Southwest 518 596 45,000  Level Miami Center
Wed 05:27:16 PM 29.8728 -78.9733 195° South 524 603 45,000 -50 Level Miami Center
Wed 05:28:16 PM 29.7344 -79.0136 194° South 524 603 44,900 -600 Descending Miami Center
Wed 05:29:16 PM 29.5881 -79.0394 189° South 524 603 43,800 -1,200 Descending Miami Center
Wed 05:30:16 PM 29.4375 -79.0625 188° South 524 603 42,500 -1,250 Descending Miami Center
Wed 05:31:16 PM 29.2850 -79.0881 188° South 550 633 41,300 -1,200 Descending Miami Center
Wed 05:32:16 PM 29.1383 -79.1183 190° South 550 633 40,100 -1,250 Descending Miami Center
Wed 05:33:16 PM 28.9900 -79.1439 189° South 550 633 38,800 -1,350 Descending Miami Center
Wed 05:34:16 PM 28.8372 -79.1714 189° South 550 633 37,400 -1,500 Descending Miami Center
Wed 05:35:16 PM 28.6864 -79.1992 189° South 550 633 35,800 -1,850 Descending Miami Center
Wed 05:36:16 PM 28.5317 -79.2289 190° South 556 640 33,700 -2,700 Descending Miami Center
Wed 05:37:16 PM 28.3767 -79.2564 189° South 567 652 30,400 -3,350 Descending Miami Center
Wed 05:38:16 PM 28.2319 -79.2908 192° South 561 646 27,000 -3,150 Descending Miami Center
Wed 05:39:16 PM 28.0914 -79.3397 197° South 503 579 24,100 -2,950 Descending Miami Center
Wed 05:40:16 PM 27.9669 -79.4097 206° Southwest 503 579 21,100 -2,950 Descending Miami Center
Wed 05:41:16 PM 27.8656 -79.4711 208° Southwest 477 549 18,200 -2,500 Descending Miami Center
Wed 05:42:16 PM 27.7600 -79.5342 208° Southwest 445 512 16,100 -1,950 Descending Miami Center
Wed 05:43:16 PM 27.6439 -79.6042 208° Southwest 429 494 14,300 -1,500 Descending Miami Center
Wed 05:44:16 PM 27.5469 -79.6581 206° Southwest 407 468 13,100 -1,100 Descending Miami Center
Wed 05:45:16 PM 27.4667 -79.7006 205° Southwest 358 412 12,100 -1,000 Descending Miami Center
Wed 05:46:16 PM 27.3969 -79.7386 206° Southwest 323 372 11,100 -1,000 Descending Miami Center
Wed 05:47:16 PM 27.3231 -79.7789 206° Southwest 307 353 10,100 -1,050 Descending Miami Center
Wed 05:48:16 PM 27.2472 -79.8192 205° Southwest 282 325 9,000 -1,050 Descending Miami Center
Wed 05:49:16 PM 27.1775 -79.8569 206° Southwest 282 325 8,000 -800 Descending Miami Center
Wed 05:50:16 PM 27.1119 -79.8950 207° Southwest 282 325 7,400 -850 Descending Miami Center
Wed 05:51:16 PM 27.0853 -79.9667 247° West 262 302 6,300 -1,100 Descending Miami Center
Wed 05:52:16 PM 27.0567 -80.0428 247° West 271 312 5,200 -1,150 Descending Miami Center
Wed 05:53:16 PM 27.0011 -80.0925 219° Southwest 242 278 4,000 -1,200 Descending Miami Center
Wed 05:54:16 PM 26.9425 -80.0981 185° South 203 234 2,800 -1,000 Descending Miami Center
Wed 05:55:16 PM 26.8836 -80.1172 196° South 219 252 2,000 -800 Descending Miami Center
Wed 05:57:00 PM 26.7855 -80.2740 265° West  Level FlightAware Approximate
Wed 06:04:00 PM 26.6832 -80.0956 110° East  Level Estimated

Login

Don't have an account? Register now (free) for customized features, flight alerts, and more!